sensor_id;sensor_type;location;lat;lon;timestamp;pressure;altitude;pressure_sealevel;temperature
33267;BMP180;19638;49.080;11.896;2023-05-16T00:00:29;95873.00;;;9.50
33267;BMP180;19638;49.080;11.896;2023-05-16T00:04:35;95862.00;;;9.40
33267;BMP180;19638;49.080;11.896;2023-05-16T00:08:44;95868.00;;;9.50
33267;BMP180;19638;49.080;11.896;2023-05-16T00:12:47;95866.00;;;9.50
33267;BMP180;19638;49.080;11.896;2023-05-16T00:16:52;95867.00;;;9.60
33267;BMP180;19638;49.080;11.896;2023-05-16T00:20:57;95863.00;;;9.50
33267;BMP180;19638;49.080;11.896;2023-05-16T00:25:02;95871.00;;;9.50
33267;BMP180;19638;49.080;11.896;2023-05-16T00:29:05;95864.00;;;9.40
33267;BMP180;19638;49.080;11.896;2023-05-16T00:33:14;95866.00;;;9.30
33267;BMP180;19638;49.080;11.896;2023-05-16T00:37:17;95872.00;;;9.20
33267;BMP180;19638;49.080;11.896;2023-05-16T00:41:22;95871.00;;;9.20
33267;BMP180;19638;49.080;11.896;2023-05-16T00:45:27;95868.00;;;9.20
33267;BMP180;19638;49.080;11.896;2023-05-16T00:49:30;95865.00;;;9.10
33267;BMP180;19638;49.080;11.896;2023-05-16T00:53:37;95873.00;;;9.00
33267;BMP180;19638;49.080;11.896;2023-05-16T00:57:41;95868.00;;;9.00
33267;BMP180;19638;49.080;11.896;2023-05-16T01:01:46;95866.00;;;8.80
33267;BMP180;19638;49.080;11.896;2023-05-16T01:05:49;95871.00;;;8.80
33267;BMP180;19638;49.080;11.896;2023-05-16T01:09:54;95859.00;;;8.80
33267;BMP180;19638;49.080;11.896;2023-05-16T01:14:13;95859.00;;;8.70
33267;BMP180;19638;49.080;11.896;2023-05-16T01:18:28;95855.00;;;8.70
33267;BMP180;19638;49.080;11.896;2023-05-16T01:22:40;95846.00;;;8.60
33267;BMP180;19638;49.080;11.896;2023-05-16T01:26:51;95844.00;;;8.60
33267;BMP180;19638;49.080;11.896;2023-05-16T01:30:56;95849.00;;;8.60
33267;BMP180;19638;49.080;11.896;2023-05-16T01:35:01;95849.00;;;8.70
33267;BMP180;19638;49.080;11.896;2023-05-16T01:39:11;95846.00;;;8.70
33267;BMP180;19638;49.080;11.896;2023-05-16T01:43:23;95844.00;;;8.70
33267;BMP180;19638;49.080;11.896;2023-05-16T01:47:44;95843.00;;;8.80
33267;BMP180;19638;49.080;11.896;2023-05-16T01:51:54;95845.00;;;8.90
33267;BMP180;19638;49.080;11.896;2023-05-16T01:56:00;95841.00;;;9.00
33267;BMP180;19638;49.080;11.896;2023-05-16T02:00:10;95844.00;;;9.10
33267;BMP180;19638;49.080;11.896;2023-05-16T02:04:27;95839.00;;;9.10
33267;BMP180;19638;49.080;11.896;2023-05-16T02:08:36;95844.00;;;9.20
33267;BMP180;19638;49.080;11.896;2023-05-16T02:12:39;95844.00;;;9.30
33267;BMP180;19638;49.080;11.896;2023-05-16T02:16:47;95839.00;;;9.40
33267;BMP180;19638;49.080;11.896;2023-05-16T02:20:50;95844.00;;;9.50
33267;BMP180;19638;49.080;11.896;2023-05-16T02:24:53;95834.00;;;9.60
33267;BMP180;19638;49.080;11.896;2023-05-16T02:28:57;95831.00;;;9.60
33267;BMP180;19638;49.080;11.896;2023-05-16T02:33:05;95833.00;;;9.70
33267;BMP180;19638;49.080;11.896;2023-05-16T02:37:13;95827.00;;;9.70
33267;BMP180;19638;49.080;11.896;2023-05-16T02:41:18;95838.00;;;9.80
33267;BMP180;19638;49.080;11.896;2023-05-16T02:45:23;95827.00;;;9.80
33267;BMP180;19638;49.080;11.896;2023-05-16T02:49:28;95829.00;;;9.90
33267;BMP180;19638;49.080;11.896;2023-05-16T02:53:31;95837.00;;;9.90
33267;BMP180;19638;49.080;11.896;2023-05-16T02:57:36;95848.00;;;9.90
33267;BMP180;19638;49.080;11.896;2023-05-16T03:01:42;95839.00;;;9.90
33267;BMP180;19638;49.080;11.896;2023-05-16T03:05:49;95857.00;;;10.00
33267;BMP180;19638;49.080;11.896;2023-05-16T03:09:53;95862.00;;;10.00
33267;BMP180;19638;49.080;11.896;2023-05-16T03:13:56;95855.00;;;10.00
33267;BMP180;19638;49.080;11.896;2023-05-16T03:18:04;95844.00;;;9.90
33267;BMP180;19638;49.080;11.896;2023-05-16T03:22:09;95851.00;;;9.90
33267;BMP180;19638;49.080;11.896;2023-05-16T03:26:15;95857.00;;;9.90
33267;BMP180;19638;49.080;11.896;2023-05-16T03:30:23;95870.00;;;9.90
33267;BMP180;19638;49.080;11.896;2023-05-16T03:34:27;95875.00;;;9.90
33267;BMP180;19638;49.080;11.896;2023-05-16T03:38:31;95881.00;;;9.90
33267;BMP180;19638;49.080;11.896;2023-05-16T03:42:39;95880.00;;;9.90
33267;BMP180;19638;49.080;11.896;2023-05-16T03:46:43;95877.00;;;9.90
33267;BMP180;19638;49.080;11.896;2023-05-16T03:50:48;95880.00;;;10.00
33267;BMP180;19638;49.080;11.896;2023-05-16T03:54:53;95886.00;;;10.00
33267;BMP180;19638;49.080;11.896;2023-05-16T03:58:59;95880.00;;;10.10
33267;BMP180;19638;49.080;11.896;2023-05-16T04:03:02;95882.00;;;10.10
33267;BMP180;19638;49.080;11.896;2023-05-16T04:07:08;95880.00;;;10.10
33267;BMP180;19638;49.080;11.896;2023-05-16T04:11:13;95882.00;;;10.20
33267;BMP180;19638;49.080;11.896;2023-05-16T04:15:16;95887.00;;;10.30
33267;BMP180;19638;49.080;11.896;2023-05-16T04:19:19;95891.00;;;10.50
33267;BMP180;19638;49.080;11.896;2023-05-16T04:23:22;95894.00;;;10.60
33267;BMP180;19638;49.080;11.896;2023-05-16T04:27:28;95891.00;;;10.70
33267;BMP180;19638;49.080;11.896;2023-05-16T04:31:33;95891.00;;;10.80
33267;BMP180;19638;49.080;11.896;2023-05-16T04:35:37;95907.00;;;10.90
33267;BMP180;19638;49.080;11.896;2023-05-16T04:39:42;95894.00;;;11.10
33267;BMP180;19638;49.080;11.896;2023-05-16T04:43:49;95901.00;;;11.30
33267;BMP180;19638;49.080;11.896;2023-05-16T04:47:54;95900.00;;;11.40
33267;BMP180;19638;49.080;11.896;2023-05-16T04:51:57;95893.00;;;11.40
33267;BMP180;19638;49.080;11.896;2023-05-16T04:56:01;95887.00;;;11.50
33267;BMP180;19638;49.080;11.896;2023-05-16T05:00:14;95889.00;;;11.60
33267;BMP180;19638;49.080;11.896;2023-05-16T05:04:18;95893.00;;;11.80
33267;BMP180;19638;49.080;11.896;2023-05-16T05:08:23;95889.00;;;11.90
33267;BMP180;19638;49.080;11.896;2023-05-16T05:12:26;95887.00;;;12.00
33267;BMP180;19638;49.080;11.896;2023-05-16T05:16:33;95891.00;;;12.10
33267;BMP180;19638;49.080;11.896;2023-05-16T05:20:38;95887.00;;;12.20
33267;BMP180;19638;49.080;11.896;2023-05-16T05:24:42;95902.00;;;12.50
33267;BMP180;19638;49.080;11.896;2023-05-16T05:28:45;95911.00;;;12.80
33267;BMP180;19638;49.080;11.896;2023-05-16T05:33:06;95907.00;;;13.00
33267;BMP180;19638;49.080;11.896;2023-05-16T05:37:11;95909.00;;;13.20
33267;BMP180;19638;49.080;11.896;2023-05-16T05:41:14;95902.00;;;13.40
33267;BMP180;19638;49.080;11.896;2023-05-16T05:45:18;95903.00;;;13.70
33267;BMP180;19638;49.080;11.896;2023-05-16T05:49:24;95894.00;;;14.10
33267;BMP180;19638;49.080;11.896;2023-05-16T05:53:27;95888.00;;;14.30
33267;BMP180;19638;49.080;11.896;2023-05-16T05:57:30;95896.00;;;14.70
33267;BMP180;19638;49.080;11.896;2023-05-16T06:01:33;95887.00;;;14.90
33267;BMP180;19638;49.080;11.896;2023-05-16T06:05:41;95886.00;;;15.00
33267;BMP180;19638;49.080;11.896;2023-05-16T06:09:44;95898.00;;;15.30
33267;BMP180;19638;49.080;11.896;2023-05-16T06:13:47;95892.00;;;15.40
33267;BMP180;19638;49.080;11.896;2023-05-16T06:17:50;95890.00;;;15.30
33267;BMP180;19638;49.080;11.896;2023-05-16T06:21:57;95882.00;;;15.40
33267;BMP180;19638;49.080;11.896;2023-05-16T06:26:03;95889.00;;;15.60
33267;BMP180;19638;49.080;11.896;2023-05-16T06:30:10;95886.00;;;16.00
33267;BMP180;19638;49.080;11.896;2023-05-16T06:34:13;95889.00;;;16.40
33267;BMP180;19638;49.080;11.896;2023-05-16T06:38:18;95894.00;;;17.00
33267;BMP180;19638;49.080;11.896;2023-05-16T06:42:21;95894.00;;;17.20
33267;BMP180;19638;49.080;11.896;2023-05-16T06:46:24;95896.00;;;17.40
33267;BMP180;19638;49.080;11.896;2023-05-16T06:50:29;95903.00;;;17.40
33267;BMP180;19638;49.080;11.896;2023-05-16T06:54:34;95896.00;;;17.50
33267;BMP180;19638;49.080;11.896;2023-05-16T06:58:40;95903.00;;;17.90
33267;BMP180;19638;49.080;11.896;2023-05-16T07:02:43;95907.00;;;17.30
33267;BMP180;19638;49.080;11.896;2023-05-16T07:06:50;95907.00;;;16.90
33267;BMP180;19638;49.080;11.896;2023-05-16T07:10:54;95908.00;;;17.00
33267;BMP180;19638;49.080;11.896;2023-05-16T07:14:57;95920.00;;;17.20
33267;BMP180;19638;49.080;11.896;2023-05-16T07:19:02;95909.00;;;17.50
33267;BMP180;19638;49.080;11.896;2023-05-16T07:23:06;95916.00;;;17.70
33267;BMP180;19638;49.080;11.896;2023-05-16T07:27:12;95916.00;;;17.60
33267;BMP180;19638;49.080;11.896;2023-05-16T07:31:16;95918.00;;;17.50
33267;BMP180;19638;49.080;11.896;2023-05-16T07:35:19;95931.00;;;17.50
33267;BMP180;19638;49.080;11.896;2023-05-16T07:39:23;95929.00;;;17.60
33267;BMP180;19638;49.080;11.896;2023-05-16T07:43:27;95935.00;;;17.60
33267;BMP180;19638;49.080;11.896;2023-05-16T07:47:30;95935.00;;;17.80
33267;BMP180;19638;49.080;11.896;2023-05-16T07:51:34;95934.00;;;17.90
33267;BMP180;19638;49.080;11.896;2023-05-16T07:55:39;95924.00;;;17.80
33267;BMP180;19638;49.080;11.896;2023-05-16T07:59:44;95929.00;;;17.90
33267;BMP180;19638;49.080;11.896;2023-05-16T08:03:47;95928.00;;;18.00
33267;BMP180;19638;49.080;11.896;2023-05-16T08:07:52;95925.00;;;17.90
33267;BMP180;19638;49.080;11.896;2023-05-16T08:11:55;95926.00;;;17.80
33267;BMP180;19638;49.080;11.896;2023-05-16T08:16:00;95933.00;;;17.80
33267;BMP180;19638;49.080;11.896;2023-05-16T08:20:06;95937.00;;;17.80
33267;BMP180;19638;49.080;11.896;2023-05-16T08:24:10;95924.00;;;18.00
33267;BMP180;19638;49.080;11.896;2023-05-16T08:28:13;95928.00;;;18.20
33267;BMP180;19638;49.080;11.896;2023-05-16T08:32:19;95930.00;;;18.50
33267;BMP180;19638;49.080;11.896;2023-05-16T08:36:22;95940.00;;;18.80
33267;BMP180;19638;49.080;11.896;2023-05-16T08:40:27;95938.00;;;18.90
33267;BMP180;19638;49.080;11.896;2023-05-16T08:44:35;95941.00;;;19.10
33267;BMP180;19638;49.080;11.896;2023-05-16T08:48:41;95944.00;;;19.30
33267;BMP180;19638;49.080;11.896;2023-05-16T08:52:51;95938.00;;;19.80
33267;BMP180;19638;49.080;11.896;2023-05-16T08:57:00;95931.00;;;20.30
33267;BMP180;19638;49.080;11.896;2023-05-16T09:01:06;95946.00;;;20.60
33267;BMP180;19638;49.080;11.896;2023-05-16T09:05:14;95944.00;;;21.00
33267;BMP180;19638;49.080;11.896;2023-05-16T09:09:23;95943.00;;;21.30
33267;BMP180;19638;49.080;11.896;2023-05-16T09:13:26;95934.00;;;21.50
33267;BMP180;19638;49.080;11.896;2023-05-16T09:17:34;95930.00;;;21.60
33267;BMP180;19638;49.080;11.896;2023-05-16T09:21:43;95930.00;;;21.80
33267;BMP180;19638;49.080;11.896;2023-05-16T09:25:46;95925.00;;;22.20
33267;BMP180;19638;49.080;11.896;2023-05-16T09:29:52;95924.00;;;22.20
33267;BMP180;19638;49.080;11.896;2023-05-16T09:34:01;95934.00;;;21.40
33267;BMP180;19638;49.080;11.896;2023-05-16T09:38:12;95938.00;;;21.00
33267;BMP180;19638;49.080;11.896;2023-05-16T09:42:20;95940.00;;;20.60
33267;BMP180;19638;49.080;11.896;2023-05-16T09:46:25;95931.00;;;20.80
33267;BMP180;19638;49.080;11.896;2023-05-16T09:50:34;95938.00;;;21.10
33267;BMP180;19638;49.080;11.896;2023-05-16T09:54:39;95930.00;;;21.00
33267;BMP180;19638;49.080;11.896;2023-05-16T09:58:43;95926.00;;;21.10
33267;BMP180;19638;49.080;11.896;2023-05-16T10:02:48;95923.00;;;21.10
33267;BMP180;19638;49.080;11.896;2023-05-16T10:06:54;95914.00;;;21.40
33267;BMP180;19638;49.080;11.896;2023-05-16T10:10:59;95916.00;;;22.10
33267;BMP180;19638;49.080;11.896;2023-05-16T10:15:04;95916.00;;;22.90
33267;BMP180;19638;49.080;11.896;2023-05-16T10:19:08;95922.00;;;23.40
33267;BMP180;19638;49.080;11.896;2023-05-16T10:23:16;95918.00;;;23.60
33267;BMP180;19638;49.080;11.896;2023-05-16T10:27:21;95909.00;;;23.50
33267;BMP180;19638;49.080;11.896;2023-05-16T10:31:25;95926.00;;;22.60
33267;BMP180;19638;49.080;11.896;2023-05-16T10:35:28;95911.00;;;21.90
33267;BMP180;19638;49.080;11.896;2023-05-16T10:39:32;95920.00;;;21.40
33267;BMP180;19638;49.080;11.896;2023-05-16T10:43:37;95922.00;;;20.90
33267;BMP180;19638;49.080;11.896;2023-05-16T10:47:52;95912.00;;;20.40
33267;BMP180;19638;49.080;11.896;2023-05-16T10:52:06;95912.00;;;20.30
33267;BMP180;19638;49.080;11.896;2023-05-16T10:56:13;95915.00;;;20.30
33267;BMP180;19638;49.080;11.896;2023-05-16T11:00:22;95911.00;;;20.20
33267;BMP180;19638;49.080;11.896;2023-05-16T11:04:44;95910.00;;;20.10
33267;BMP180;19638;49.080;11.896;2023-05-16T11:08:57;95909.00;;;20.00
33267;BMP180;19638;49.080;11.896;2023-05-16T11:13:07;95918.00;;;20.00
33267;BMP180;19638;49.080;11.896;2023-05-16T11:17:12;95915.00;;;20.00
33267;BMP180;19638;49.080;11.896;2023-05-16T11:21:18;95919.00;;;19.90
33267;BMP180;19638;49.080;11.896;2023-05-16T11:25:34;95918.00;;;19.80
33267;BMP180;19638;49.080;11.896;2023-05-16T11:29:42;95916.00;;;19.70
33267;BMP180;19638;49.080;11.896;2023-05-16T11:33:47;95915.00;;;19.60
33267;BMP180;19638;49.080;11.896;2023-05-16T11:37:51;95910.00;;;19.60
33267;BMP180;19638;49.080;11.896;2023-05-16T11:41:55;95915.00;;;19.40
33267;BMP180;19638;49.080;11.896;2023-05-16T11:46:01;95920.00;;;19.30
33267;BMP180;19638;49.080;11.896;2023-05-16T11:50:10;95925.00;;;19.20
33267;BMP180;19638;49.080;11.896;2023-05-16T11:54:14;95926.00;;;19.10
33267;BMP180;19638;49.080;11.896;2023-05-16T11:58:21;95927.00;;;19.10
33267;BMP180;19638;49.080;11.896;2023-05-16T12:02:24;95932.00;;;19.20
33267;BMP180;19638;49.080;11.896;2023-05-16T12:06:32;95934.00;;;19.10
33267;BMP180;19638;49.080;11.896;2023-05-16T12:10:35;95941.00;;;19.10
33267;BMP180;19638;49.080;11.896;2023-05-16T12:14:39;95943.00;;;19.20
33267;BMP180;19638;49.080;11.896;2023-05-16T12:18:42;95950.00;;;19.20
33267;BMP180;19638;49.080;11.896;2023-05-16T12:22:47;95957.00;;;19.10
33267;BMP180;19638;49.080;11.896;2023-05-16T12:26:52;95958.00;;;18.90
33267;BMP180;19638;49.080;11.896;2023-05-16T12:30:55;95962.00;;;18.70
33267;BMP180;19638;49.080;11.896;2023-05-16T12:35:00;95981.00;;;18.30
33267;BMP180;19638;49.080;11.896;2023-05-16T12:39:05;95994.00;;;17.60
33267;BMP180;19638;49.080;11.896;2023-05-16T12:43:13;95992.00;;;16.10
33267;BMP180;19638;49.080;11.896;2023-05-16T12:47:21;96001.00;;;15.00
33267;BMP180;19638;49.080;11.896;2023-05-16T12:51:31;95998.00;;;14.60
33267;BMP180;19638;49.080;11.896;2023-05-16T12:55:37;95995.00;;;14.30
33267;BMP180;19638;49.080;11.896;2023-05-16T12:59:40;95986.00;;;14.30
33267;BMP180;19638;49.080;11.896;2023-05-16T13:03:46;95980.00;;;14.30
33267;BMP180;19638;49.080;11.896;2023-05-16T13:07:52;95981.00;;;14.20
33267;BMP180;19638;49.080;11.896;2023-05-16T13:11:59;95979.00;;;14.20
33267;BMP180;19638;49.080;11.896;2023-05-16T13:16:02;95982.00;;;14.20
33267;BMP180;19638;49.080;11.896;2023-05-16T13:20:06;95984.00;;;14.10
33267;BMP180;19638;49.080;11.896;2023-05-16T13:24:12;95982.00;;;14.10
33267;BMP180;19638;49.080;11.896;2023-05-16T13:28:16;95994.00;;;14.10
33267;BMP180;19638;49.080;11.896;2023-05-16T13:32:22;95983.00;;;14.10
33267;BMP180;19638;49.080;11.896;2023-05-16T13:36:25;95996.00;;;14.10
33267;BMP180;19638;49.080;11.896;2023-05-16T13:40:36;95998.00;;;14.00
33267;BMP180;19638;49.080;11.896;2023-05-16T13:44:41;95997.00;;;14.00
33267;BMP180;19638;49.080;11.896;2023-05-16T13:48:50;95998.00;;;14.00
33267;BMP180;19638;49.080;11.896;2023-05-16T13:52:53;95992.00;;;13.90
33267;BMP180;19638;49.080;11.896;2023-05-16T13:56:56;96000.00;;;14.00
33267;BMP180;19638;49.080;11.896;2023-05-16T14:01:01;95999.00;;;14.10
33267;BMP180;19638;49.080;11.896;2023-05-16T14:05:10;95998.00;;;14.30
33267;BMP180;19638;49.080;11.896;2023-05-16T14:09:13;95992.00;;;14.40
33267;BMP180;19638;49.080;11.896;2023-05-16T14:13:17;96006.00;;;14.60
33267;BMP180;19638;49.080;11.896;2023-05-16T14:17:22;96004.00;;;14.70
33267;BMP180;19638;49.080;11.896;2023-05-16T14:21:27;96007.00;;;14.80
33267;BMP180;19638;49.080;11.896;2023-05-16T14:25:33;96006.00;;;14.90
33267;BMP180;19638;49.080;11.896;2023-05-16T14:29:36;96005.00;;;15.00
33267;BMP180;19638;49.080;11.896;2023-05-16T14:33:41;96000.00;;;14.90
33267;BMP180;19638;49.080;11.896;2023-05-16T14:37:48;96015.00;;;14.90
33267;BMP180;19638;49.080;11.896;2023-05-16T14:41:52;96016.00;;;14.90
33267;BMP180;19638;49.080;11.896;2023-05-16T14:45:55;96018.00;;;14.90
33267;BMP180;19638;49.080;11.896;2023-05-16T14:50:00;96018.00;;;14.90
33267;BMP180;19638;49.080;11.896;2023-05-16T14:54:06;96020.00;;;14.90
33267;BMP180;19638;49.080;11.896;2023-05-16T14:58:10;96024.00;;;14.90
33267;BMP180;19638;49.080;11.896;2023-05-16T15:02:14;96022.00;;;15.00
33267;BMP180;19638;49.080;11.896;2023-05-16T15:06:23;96030.00;;;15.10
33267;BMP180;19638;49.080;11.896;2023-05-16T15:10:29;96018.00;;;15.20
33267;BMP180;19638;49.080;11.896;2023-05-16T15:14:35;96028.00;;;15.30
33267;BMP180;19638;49.080;11.896;2023-05-16T15:18:43;96022.00;;;15.40
33267;BMP180;19638;49.080;11.896;2023-05-16T15:22:48;96027.00;;;15.60
33267;BMP180;19638;49.080;11.896;2023-05-16T15:26:55;96035.00;;;15.60
33267;BMP180;19638;49.080;11.896;2023-05-16T15:30:58;96037.00;;;15.50
33267;BMP180;19638;49.080;11.896;2023-05-16T15:35:03;96034.00;;;15.60
33267;BMP180;19638;49.080;11.896;2023-05-16T15:39:11;96042.00;;;15.80
33267;BMP180;19638;49.080;11.896;2023-05-16T15:43:15;96043.00;;;15.90
33267;BMP180;19638;49.080;11.896;2023-05-16T15:47:18;96051.00;;;16.00
33267;BMP180;19638;49.080;11.896;2023-05-16T15:51:25;96039.00;;;16.00
33267;BMP180;19638;49.080;11.896;2023-05-16T15:55:30;96046.00;;;16.10
33267;BMP180;19638;49.080;11.896;2023-05-16T15:59:33;96053.00;;;16.10
33267;BMP180;19638;49.080;11.896;2023-05-16T16:03:40;96067.00;;;15.90
33267;BMP180;19638;49.080;11.896;2023-05-16T16:07:47;96067.00;;;15.90
33267;BMP180;19638;49.080;11.896;2023-05-16T16:11:51;96059.00;;;16.00
33267;BMP180;19638;49.080;11.896;2023-05-16T16:15:57;96073.00;;;16.00
33267;BMP180;19638;49.080;11.896;2023-05-16T16:20:02;96081.00;;;15.80
33267;BMP180;19638;49.080;11.896;2023-05-16T16:24:09;96087.00;;;15.70
33267;BMP180;19638;49.080;11.896;2023-05-16T16:28:15;96088.00;;;15.60
33267;BMP180;19638;49.080;11.896;2023-05-16T16:32:18;96088.00;;;15.40
33267;BMP180;19638;49.080;11.896;2023-05-16T16:36:21;96096.00;;;15.50
33267;BMP180;19638;49.080;11.896;2023-05-16T16:40:33;96095.00;;;15.40
33267;BMP180;19638;49.080;11.896;2023-05-16T16:44:38;96102.00;;;15.50
33267;BMP180;19638;49.080;11.896;2023-05-16T16:48:43;96116.00;;;15.50
33267;BMP180;19638;49.080;11.896;2023-05-16T16:52:48;96126.00;;;15.50
33267;BMP180;19638;49.080;11.896;2023-05-16T16:56:55;96119.00;;;15.40
33267;BMP180;19638;49.080;11.896;2023-05-16T17:01:02;96138.00;;;15.30
33267;BMP180;19638;49.080;11.896;2023-05-16T17:05:11;96143.00;;;15.30
33267;BMP180;19638;49.080;11.896;2023-05-16T17:09:15;96154.00;;;15.20
33267;BMP180;19638;49.080;11.896;2023-05-16T17:13:20;96157.00;;;15.20
33267;BMP180;19638;49.080;11.896;2023-05-16T17:17:24;96165.00;;;15.10
33267;BMP180;19638;49.080;11.896;2023-05-16T17:21:29;96168.00;;;15.10
33267;BMP180;19638;49.080;11.896;2023-05-16T17:25:36;96176.00;;;14.90
33267;BMP180;19638;49.080;11.896;2023-05-16T17:29:39;96186.00;;;14.80
33267;BMP180;19638;49.080;11.896;2023-05-16T17:33:44;96194.00;;;14.70
33267;BMP180;19638;49.080;11.896;2023-05-16T17:37:47;96179.00;;;14.40
33267;BMP180;19638;49.080;11.896;2023-05-16T17:41:52;96181.00;;;14.30
33267;BMP180;19638;49.080;11.896;2023-05-16T17:46:05;96194.00;;;14.00
33267;BMP180;19638;49.080;11.896;2023-05-16T17:50:09;96201.00;;;13.80
33267;BMP180;19638;49.080;11.896;2023-05-16T17:54:16;96185.00;;;13.70
33267;BMP180;19638;49.080;11.896;2023-05-16T17:58:21;96189.00;;;13.50
33267;BMP180;19638;49.080;11.896;2023-05-16T18:02:28;96183.00;;;13.40
33267;BMP180;19638;49.080;11.896;2023-05-16T18:06:35;96190.00;;;13.30
33267;BMP180;19638;49.080;11.896;2023-05-16T18:10:41;96189.00;;;13.20
33267;BMP180;19638;49.080;11.896;2023-05-16T18:14:50;96196.00;;;13.10
33267;BMP180;19638;49.080;11.896;2023-05-16T18:18:53;96202.00;;;13.10
33267;BMP180;19638;49.080;11.896;2023-05-16T18:23:01;96216.00;;;13.10
33267;BMP180;19638;49.080;11.896;2023-05-16T18:27:04;96211.00;;;12.90
33267;BMP180;19638;49.080;11.896;2023-05-16T18:31:07;96217.00;;;12.80
33267;BMP180;19638;49.080;11.896;2023-05-16T18:35:13;96216.00;;;12.70
33267;BMP180;19638;49.080;11.896;2023-05-16T18:39:20;96227.00;;;12.60
33267;BMP180;19638;49.080;11.896;2023-05-16T18:43:23;96244.00;;;12.60
33267;BMP180;19638;49.080;11.896;2023-05-16T18:47:28;96239.00;;;12.50
33267;BMP180;19638;49.080;11.896;2023-05-16T18:51:32;96244.00;;;12.50
33267;BMP180;19638;49.080;11.896;2023-05-16T18:55:37;96246.00;;;12.40
33267;BMP180;19638;49.080;11.896;2023-05-16T18:59:40;96254.00;;;12.30
33267;BMP180;19638;49.080;11.896;2023-05-16T19:03:44;96255.00;;;12.30
33267;BMP180;19638;49.080;11.896;2023-05-16T19:07:47;96254.00;;;12.20
33267;BMP180;19638;49.080;11.896;2023-05-16T19:11:52;96255.00;;;12.10
33267;BMP180;19638;49.080;11.896;2023-05-16T19:15:55;96251.00;;;12.10
33267;BMP180;19638;49.080;11.896;2023-05-16T19:20:01;96255.00;;;12.00
33267;BMP180;19638;49.080;11.896;2023-05-16T19:24:12;96249.00;;;12.00
33267;BMP180;19638;49.080;11.896;2023-05-16T19:28:20;96265.00;;;11.90
33267;BMP180;19638;49.080;11.896;2023-05-16T19:32:23;96267.00;;;11.90
33267;BMP180;19638;49.080;11.896;2023-05-16T19:36:27;96274.00;;;11.80
33267;BMP180;19638;49.080;11.896;2023-05-16T19:40:31;96277.00;;;11.80
33267;BMP180;19638;49.080;11.896;2023-05-16T19:44:36;96288.00;;;11.70
33267;BMP180;19638;49.080;11.896;2023-05-16T19:48:39;96286.00;;;11.70
33267;BMP180;19638;49.080;11.896;2023-05-16T19:52:45;96286.00;;;11.70
33267;BMP180;19638;49.080;11.896;2023-05-16T19:56:49;96305.00;;;11.60
33267;BMP180;19638;49.080;11.896;2023-05-16T20:00:56;96311.00;;;11.60
33267;BMP180;19638;49.080;11.896;2023-05-16T20:05:01;96307.00;;;11.60
33267;BMP180;19638;49.080;11.896;2023-05-16T20:09:05;96312.00;;;11.50
33267;BMP180;19638;49.080;11.896;2023-05-16T20:13:11;96319.00;;;11.50
33267;BMP180;19638;49.080;11.896;2023-05-16T20:17:22;96323.00;;;11.40
33267;BMP180;19638;49.080;11.896;2023-05-16T20:21:28;96319.00;;;11.40
33267;BMP180;19638;49.080;11.896;2023-05-16T20:25:38;96327.00;;;11.40
33267;BMP180;19638;49.080;11.896;2023-05-16T20:29:41;96315.00;;;11.30
33267;BMP180;19638;49.080;11.896;2023-05-16T20:33:47;96311.00;;;11.20
33267;BMP180;19638;49.080;11.896;2023-05-16T20:37:53;96308.00;;;11.20
33267;BMP180;19638;49.080;11.896;2023-05-16T20:41:57;96303.00;;;11.10
33267;BMP180;19638;49.080;11.896;2023-05-16T20:46:00;96314.00;;;11.10
33267;BMP180;19638;49.080;11.896;2023-05-16T20:50:08;96310.00;;;11.00
33267;BMP180;19638;49.080;11.896;2023-05-16T20:54:14;96318.00;;;10.90
33267;BMP180;19638;49.080;11.896;2023-05-16T20:58:20;96324.00;;;10.90
33267;BMP180;19638;49.080;11.896;2023-05-16T21:02:26;96312.00;;;10.80
33267;BMP180;19638;49.080;11.896;2023-05-16T21:06:35;96326.00;;;10.80
33267;BMP180;19638;49.080;11.896;2023-05-16T21:10:38;96323.00;;;10.80
33267;BMP180;19638;49.080;11.896;2023-05-16T21:14:42;96308.00;;;10.80
33267;BMP180;19638;49.080;11.896;2023-05-16T21:18:47;96313.00;;;10.80
33267;BMP180;19638;49.080;11.896;2023-05-16T21:22:54;96315.00;;;10.80
33267;BMP180;19638;49.080;11.896;2023-05-16T21:26:59;96317.00;;;10.80
33267;BMP180;19638;49.080;11.896;2023-05-16T21:31:07;96331.00;;;10.80
33267;BMP180;19638;49.080;11.896;2023-05-16T21:35:11;96340.00;;;10.70
33267;BMP180;19638;49.080;11.896;2023-05-16T21:39:16;96342.00;;;10.70
33267;BMP180;19638;49.080;11.896;2023-05-16T21:43:19;96357.00;;;10.60
33267;BMP180;19638;49.080;11.896;2023-05-16T21:47:22;96356.00;;;10.60
33267;BMP180;19638;49.080;11.896;2023-05-16T21:51:28;96357.00;;;10.50
33267;BMP180;19638;49.080;11.896;2023-05-16T21:55:32;96362.00;;;10.50
33267;BMP180;19638;49.080;11.896;2023-05-16T21:59:36;96360.00;;;10.50
33267;BMP180;19638;49.080;11.896;2023-05-16T22:03:39;96358.00;;;10.40
33267;BMP180;19638;49.080;11.896;2023-05-16T22:07:42;96369.00;;;10.40
33267;BMP180;19638;49.080;11.896;2023-05-16T22:11:48;96360.00;;;10.40
33267;BMP180;19638;49.080;11.896;2023-05-16T22:15:51;96362.00;;;10.40
33267;BMP180;19638;49.080;11.896;2023-05-16T22:20:09;96367.00;;;10.40
33267;BMP180;19638;49.080;11.896;2023-05-16T22:24:12;96377.00;;;10.40
33267;BMP180;19638;49.080;11.896;2023-05-16T22:28:19;96376.00;;;10.30
33267;BMP180;19638;49.080;11.896;2023-05-16T22:32:22;96377.00;;;10.30
33267;BMP180;19638;49.080;11.896;2023-05-16T22:36:27;96375.00;;;10.30
33267;BMP180;19638;49.080;11.896;2023-05-16T22:40:36;96370.00;;;10.30
33267;BMP180;19638;49.080;11.896;2023-05-16T22:44:43;96378.00;;;10.30
33267;BMP180;19638;49.080;11.896;2023-05-16T22:48:49;96385.00;;;10.30
33267;BMP180;19638;49.080;11.896;2023-05-16T22:52:52;96392.00;;;10.30
33267;BMP180;19638;49.080;11.896;2023-05-16T22:56:55;96389.00;;;10.30
33267;BMP180;19638;49.080;11.896;2023-05-16T23:00:59;96389.00;;;10.30
33267;BMP180;19638;49.080;11.896;2023-05-16T23:05:03;96393.00;;;10.30
33267;BMP180;19638;49.080;11.896;2023-05-16T23:09:07;96395.00;;;10.30
33267;BMP180;19638;49.080;11.896;2023-05-16T23:13:10;96398.00;;;10.30
33267;BMP180;19638;49.080;11.896;2023-05-16T23:17:17;96399.00;;;10.30